sensor_id;sensor_type;location;lat;lon;timestamp;temperature;humidity
3275;DHT22;1649;53.672;10.064;2023-06-22T00:01:04;18.30;99.90
3275;DHT22;1649;53.672;10.064;2023-06-22T00:03:29;18.30;99.90
3275;DHT22;1649;53.672;10.064;2023-06-22T00:05:55;18.30;99.90
3275;DHT22;1649;53.672;10.064;2023-06-22T00:08:21;18.30;99.90
3275;DHT22;1649;53.672;10.064;2023-06-22T00:10:47;18.20;99.90
3275;DHT22;1649;53.672;10.064;2023-06-22T00:13:13;18.30;99.90
3275;DHT22;1649;53.672;10.064;2023-06-22T00:15:40;18.30;99.90
3275;DHT22;1649;53.672;10.064;2023-06-22T00:18:07;18.30;99.90
3275;DHT22;1649;53.672;10.064;2023-06-22T00:20:33;18.20;99.90
3275;DHT22;1649;53.672;10.064;2023-06-22T00:22:59;18.20;99.90
3275;DHT22;1649;53.672;10.064;2023-06-22T00:25:25;18.20;99.90
3275;DHT22;1649;53.672;10.064;2023-06-22T00:27:51;18.10;99.90
3275;DHT22;1649;53.672;10.064;2023-06-22T00:30:17;18.00;99.90
3275;DHT22;1649;53.672;10.064;2023-06-22T00:32:44;18.10;99.90
3275;DHT22;1649;53.672;10.064;2023-06-22T00:35:10;18.00;99.90
3275;DHT22;1649;53.672;10.064;2023-06-22T00:37:36;18.00;99.90
3275;DHT22;1649;53.672;10.064;2023-06-22T00:40:02;17.90;99.90
3275;DHT22;1649;53.672;10.064;2023-06-22T00:42:29;17.90;99.90
3275;DHT22;1649;53.672;10.064;2023-06-22T00:44:55;17.90;99.90
3275;DHT22;1649;53.672;10.064;2023-06-22T00:47:21;17.90;99.90
3275;DHT22;1649;53.672;10.064;2023-06-22T00:49:48;17.90;99.90
3275;DHT22;1649;53.672;10.064;2023-06-22T00:52:16;17.90;99.90
3275;DHT22;1649;53.672;10.064;2023-06-22T00:54:49;17.90;99.90
3275;DHT22;1649;53.672;10.064;2023-06-22T00:57:17;17.80;99.90
3275;DHT22;1649;53.672;10.064;2023-06-22T00:59:44;17.80;99.90
3275;DHT22;1649;53.672;10.064;2023-06-22T01:02:10;17.70;99.90
3275;DHT22;1649;53.672;10.064;2023-06-22T01:04:37;17.70;99.90
3275;DHT22;1649;53.672;10.064;2023-06-22T01:07:17;17.70;99.90
3275;DHT22;1649;53.672;10.064;2023-06-22T01:09:57;17.70;99.90
3275;DHT22;1649;53.672;10.064;2023-06-22T01:12:25;17.70;99.90
3275;DHT22;1649;53.672;10.064;2023-06-22T01:15:08;17.70;99.90
3275;DHT22;1649;53.672;10.064;2023-06-22T01:17:36;17.80;99.90
3275;DHT22;1649;53.672;10.064;2023-06-22T01:20:04;17.60;99.90
3275;DHT22;1649;53.672;10.064;2023-06-22T01:22:33;17.60;99.90
3275;DHT22;1649;53.672;10.064;2023-06-22T01:25:12;17.60;99.90
3275;DHT22;1649;53.672;10.064;2023-06-22T01:28:22;17.60;99.90
3275;DHT22;1649;53.672;10.064;2023-06-22T01:30:49;17.60;99.90
3275;DHT22;1649;53.672;10.064;2023-06-22T01:33:29;17.60;99.90
3275;DHT22;1649;53.672;10.064;2023-06-22T01:35:56;17.50;99.90
3275;DHT22;1649;53.672;10.064;2023-06-22T01:38:22;17.50;99.90
3275;DHT22;1649;53.672;10.064;2023-06-22T01:40:48;17.50;99.90
3275;DHT22;1649;53.672;10.064;2023-06-22T01:43:14;17.60;99.90
3275;DHT22;1649;53.672;10.064;2023-06-22T01:45:40;17.60;99.90
3275;DHT22;1649;53.672;10.064;2023-06-22T01:48:06;17.50;99.90
3275;DHT22;1649;53.672;10.064;2023-06-22T01:50:32;17.50;99.90
3275;DHT22;1649;53.672;10.064;2023-06-22T01:52:58;17.50;99.90
3275;DHT22;1649;53.672;10.064;2023-06-22T01:55:23;17.50;99.90
3275;DHT22;1649;53.672;10.064;2023-06-22T01:57:49;17.40;99.90
3275;DHT22;1649;53.672;10.064;2023-06-22T02:00:19;17.40;99.90
3275;DHT22;1649;53.672;10.064;2023-06-22T02:02:59;17.40;99.90
3275;DHT22;1649;53.672;10.064;2023-06-22T02:05:38;17.50;99.90
3275;DHT22;1649;53.672;10.064;2023-06-22T02:08:13;17.50;99.90
3275;DHT22;1649;53.672;10.064;2023-06-22T02:10:42;17.50;99.90
3275;DHT22;1649;53.672;10.064;2023-06-22T02:13:09;17.50;99.90
3275;DHT22;1649;53.672;10.064;2023-06-22T02:15:35;17.40;99.90
3275;DHT22;1649;53.672;10.064;2023-06-22T02:18:01;17.50;99.90
3275;DHT22;1649;53.672;10.064;2023-06-22T02:20:27;17.40;99.90
3275;DHT22;1649;53.672;10.064;2023-06-22T02:22:52;17.40;99.90
3275;DHT22;1649;53.672;10.064;2023-06-22T02:25:18;17.40;99.90
3275;DHT22;1649;53.672;10.064;2023-06-22T02:27:44;17.40;99.90
3275;DHT22;1649;53.672;10.064;2023-06-22T02:30:10;17.40;99.90
3275;DHT22;1649;53.672;10.064;2023-06-22T02:32:36;17.30;99.90
3275;DHT22;1649;53.672;10.064;2023-06-22T02:35:02;17.30;99.90
3275;DHT22;1649;53.672;10.064;2023-06-22T02:37:32;17.30;99.90
3275;DHT22;1649;53.672;10.064;2023-06-22T02:39:57;17.20;99.90
3275;DHT22;1649;53.672;10.064;2023-06-22T02:42:24;17.30;99.90
3275;DHT22;1649;53.672;10.064;2023-06-22T02:44:49;17.20;99.90
3275;DHT22;1649;53.672;10.064;2023-06-22T02:47:15;17.20;99.90
3275;DHT22;1649;53.672;10.064;2023-06-22T02:49:41;17.20;99.90
3275;DHT22;1649;53.672;10.064;2023-06-22T02:52:07;17.20;99.90
3275;DHT22;1649;53.672;10.064;2023-06-22T02:54:32;17.20;99.90
3275;DHT22;1649;53.672;10.064;2023-06-22T02:56:59;17.20;99.90
3275;DHT22;1649;53.672;10.064;2023-06-22T02:59:28;17.10;99.90
3275;DHT22;1649;53.672;10.064;2023-06-22T03:01:53;17.00;99.90
3275;DHT22;1649;53.672;10.064;2023-06-22T03:04:19;17.00;99.90
3275;DHT22;1649;53.672;10.064;2023-06-22T03:06:44;17.00;99.90
3275;DHT22;1649;53.672;10.064;2023-06-22T03:09:16;17.00;99.90
3275;DHT22;1649;53.672;10.064;2023-06-22T03:11:41;16.90;99.90
3275;DHT22;1649;53.672;10.064;2023-06-22T03:14:07;17.00;99.90
3275;DHT22;1649;53.672;10.064;2023-06-22T03:16:32;17.00;99.90
3275;DHT22;1649;53.672;10.064;2023-06-22T03:18:59;16.90;99.90
3275;DHT22;1649;53.672;10.064;2023-06-22T03:21:28;16.90;99.90
3275;DHT22;1649;53.672;10.064;2023-06-22T03:23:53;16.90;99.90
3275;DHT22;1649;53.672;10.064;2023-06-22T03:26:19;16.90;99.90
3275;DHT22;1649;53.672;10.064;2023-06-22T03:28:45;16.80;99.90
3275;DHT22;1649;53.672;10.064;2023-06-22T03:31:11;16.80;99.90
3275;DHT22;1649;53.672;10.064;2023-06-22T03:33:36;16.80;99.90
3275;DHT22;1649;53.672;10.064;2023-06-22T03:36:02;16.80;99.90
3275;DHT22;1649;53.672;10.064;2023-06-22T03:38:28;16.80;99.90
3275;DHT22;1649;53.672;10.064;2023-06-22T03:40:53;16.80;99.90
3275;DHT22;1649;53.672;10.064;2023-06-22T03:43:19;16.80;99.90
3275;DHT22;1649;53.672;10.064;2023-06-22T03:45:44;16.90;99.90
3275;DHT22;1649;53.672;10.064;2023-06-22T03:48:13;16.90;99.90
3275;DHT22;1649;53.672;10.064;2023-06-22T03:50:38;17.00;99.90
3275;DHT22;1649;53.672;10.064;2023-06-22T03:53:04;17.00;99.90
3275;DHT22;1649;53.672;10.064;2023-06-22T03:55:29;17.00;99.90
3275;DHT22;1649;53.672;10.064;2023-06-22T03:57:55;17.10;99.90
3275;DHT22;1649;53.672;10.064;2023-06-22T04:00:23;17.20;99.90
3275;DHT22;1649;53.672;10.064;2023-06-22T04:02:48;17.20;99.90
3275;DHT22;1649;53.672;10.064;2023-06-22T04:05:13;17.30;99.90
3275;DHT22;1649;53.672;10.064;2023-06-22T04:07:39;17.30;99.90
3275;DHT22;1649;53.672;10.064;2023-06-22T04:10:05;17.40;99.90
3275;DHT22;1649;53.672;10.064;2023-06-22T04:12:30;17.40;99.90
3275;DHT22;1649;53.672;10.064;2023-06-22T04:14:56;17.50;99.90
3275;DHT22;1649;53.672;10.064;2023-06-22T04:17:21;17.50;99.90
3275;DHT22;1649;53.672;10.064;2023-06-22T04:19:50;17.60;99.90
3275;DHT22;1649;53.672;10.064;2023-06-22T04:22:16;17.60;99.90
3275;DHT22;1649;53.672;10.064;2023-06-22T04:24:41;17.60;99.90
3275;DHT22;1649;53.672;10.064;2023-06-22T04:27:07;17.70;99.90
3275;DHT22;1649;53.672;10.064;2023-06-22T04:29:32;17.70;99.90
3275;DHT22;1649;53.672;10.064;2023-06-22T04:31:58;17.80;99.90
3275;DHT22;1649;53.672;10.064;2023-06-22T04:34:28;17.80;99.90
3275;DHT22;1649;53.672;10.064;2023-06-22T04:36:54;17.80;99.90
3275;DHT22;1649;53.672;10.064;2023-06-22T04:39:20;17.80;99.90
3275;DHT22;1649;53.672;10.064;2023-06-22T04:41:46;18.00;99.90
3275;DHT22;1649;53.672;10.064;2023-06-22T04:44:16;17.90;99.90
3275;DHT22;1649;53.672;10.064;2023-06-22T04:46:59;18.00;99.90
3275;DHT22;1649;53.672;10.064;2023-06-22T04:49:34;18.00;99.90
3275;DHT22;1649;53.672;10.064;2023-06-22T04:52:06;18.10;99.90
3275;DHT22;1649;53.672;10.064;2023-06-22T04:54:33;18.00;99.90
3275;DHT22;1649;53.672;10.064;2023-06-22T04:57:03;18.10;99.90
3275;DHT22;1649;53.672;10.064;2023-06-22T04:59:31;18.10;99.90
3275;DHT22;1649;53.672;10.064;2023-06-22T05:02:01;18.10;99.90
3275;DHT22;1649;53.672;10.064;2023-06-22T05:04:29;18.20;99.90
3275;DHT22;1649;53.672;10.064;2023-06-22T05:06:56;18.30;99.90
3275;DHT22;1649;53.672;10.064;2023-06-22T05:09:23;18.40;99.90
3275;DHT22;1649;53.672;10.064;2023-06-22T05:11:50;18.50;99.90
3275;DHT22;1649;53.672;10.064;2023-06-22T05:14:16;18.60;99.90
3275;DHT22;1649;53.672;10.064;2023-06-22T05:16:42;18.70;99.90
3275;DHT22;1649;53.672;10.064;2023-06-22T05:19:08;18.70;99.90
3275;DHT22;1649;53.672;10.064;2023-06-22T05:21:33;18.80;99.90
3275;DHT22;1649;53.672;10.064;2023-06-22T05:23:59;18.70;99.90
3275;DHT22;1649;53.672;10.064;2023-06-22T05:26:27;18.80;99.90
3275;DHT22;1649;53.672;10.064;2023-06-22T05:28:53;19.00;99.90
3275;DHT22;1649;53.672;10.064;2023-06-22T05:31:18;19.00;99.90
3275;DHT22;1649;53.672;10.064;2023-06-22T05:33:48;19.10;99.90
3275;DHT22;1649;53.672;10.064;2023-06-22T05:36:14;19.20;99.90
3275;DHT22;1649;53.672;10.064;2023-06-22T05:38:41;19.20;99.90
3275;DHT22;1649;53.672;10.064;2023-06-22T05:41:07;19.10;99.90
3275;DHT22;1649;53.672;10.064;2023-06-22T05:43:33;19.10;99.90
3275;DHT22;1649;53.672;10.064;2023-06-22T05:46:00;19.10;99.90
3275;DHT22;1649;53.672;10.064;2023-06-22T05:48:26;19.20;99.90
3275;DHT22;1649;53.672;10.064;2023-06-22T05:50:52;19.30;99.90
3275;DHT22;1649;53.672;10.064;2023-06-22T05:53:18;19.40;99.90
3275;DHT22;1649;53.672;10.064;2023-06-22T05:55:43;19.60;99.90
3275;DHT22;1649;53.672;10.064;2023-06-22T05:58:09;19.70;99.90
3275;DHT22;1649;53.672;10.064;2023-06-22T06:00:35;19.80;99.90
3275;DHT22;1649;53.672;10.064;2023-06-22T06:03:01;19.90;99.90
3275;DHT22;1649;53.672;10.064;2023-06-22T06:05:35;19.90;99.90
3275;DHT22;1649;53.672;10.064;2023-06-22T06:08:03;20.10;99.90
3275;DHT22;1649;53.672;10.064;2023-06-22T06:10:31;20.10;99.90
3275;DHT22;1649;53.672;10.064;2023-06-22T06:12:56;20.20;99.90
3275;DHT22;1649;53.672;10.064;2023-06-22T06:15:22;20.30;99.90
3275;DHT22;1649;53.672;10.064;2023-06-22T06:17:52;20.50;99.90
3275;DHT22;1649;53.672;10.064;2023-06-22T06:20:20;20.50;99.90
3275;DHT22;1649;53.672;10.064;2023-06-22T06:22:46;20.60;99.90
3275;DHT22;1649;53.672;10.064;2023-06-22T06:25:12;20.70;99.90
3275;DHT22;1649;53.672;10.064;2023-06-22T06:27:48;21.00;99.90
3275;DHT22;1649;53.672;10.064;2023-06-22T06:30:15;21.10;99.90
3275;DHT22;1649;53.672;10.064;2023-06-22T06:32:42;21.10;99.90
3275;DHT22;1649;53.672;10.064;2023-06-22T06:35:09;21.30;99.90
3275;DHT22;1649;53.672;10.064;2023-06-22T06:37:40;21.20;99.90
3275;DHT22;1649;53.672;10.064;2023-06-22T06:40:11;21.30;99.90
3275;DHT22;1649;53.672;10.064;2023-06-22T06:42:41;21.40;99.90
3275;DHT22;1649;53.672;10.064;2023-06-22T06:45:16;21.30;99.90
3275;DHT22;1649;53.672;10.064;2023-06-22T06:47:42;21.30;99.90
3275;DHT22;1649;53.672;10.064;2023-06-22T06:50:08;21.10;99.90
3275;DHT22;1649;53.672;10.064;2023-06-22T06:52:35;21.00;99.90
3275;DHT22;1649;53.672;10.064;2023-06-22T06:55:00;20.90;99.90
3275;DHT22;1649;53.672;10.064;2023-06-22T06:57:26;21.00;99.90
3275;DHT22;1649;53.672;10.064;2023-06-22T06:59:56;21.10;99.90
3275;DHT22;1649;53.672;10.064;2023-06-22T07:02:22;21.20;99.90
3275;DHT22;1649;53.672;10.064;2023-06-22T07:04:47;21.30;99.90
3275;DHT22;1649;53.672;10.064;2023-06-22T07:07:14;21.40;99.90
3275;DHT22;1649;53.672;10.064;2023-06-22T07:09:39;21.60;99.90
3275;DHT22;1649;53.672;10.064;2023-06-22T07:12:05;21.80;99.90
3275;DHT22;1649;53.672;10.064;2023-06-22T07:14:31;22.00;99.90
3275;DHT22;1649;53.672;10.064;2023-06-22T07:16:57;22.20;99.90
3275;DHT22;1649;53.672;10.064;2023-06-22T07:19:27;22.30;99.90
3275;DHT22;1649;53.672;10.064;2023-06-22T07:21:53;22.50;99.90
3275;DHT22;1649;53.672;10.064;2023-06-22T07:24:23;22.70;99.90
3275;DHT22;1649;53.672;10.064;2023-06-22T07:26:49;23.20;99.90
3275;DHT22;1649;53.672;10.064;2023-06-22T07:29:17;23.40;99.90
3275;DHT22;1649;53.672;10.064;2023-06-22T07:31:43;23.40;99.90
3275;DHT22;1649;53.672;10.064;2023-06-22T07:34:08;23.90;99.90
3275;DHT22;1649;53.672;10.064;2023-06-22T07:36:34;24.40;99.90
3275;DHT22;1649;53.672;10.064;2023-06-22T07:39:01;24.70;99.90
3275;DHT22;1649;53.672;10.064;2023-06-22T07:41:28;25.10;99.90
3275;DHT22;1649;53.672;10.064;2023-06-22T07:43:53;25.50;98.70
3275;DHT22;1649;53.672;10.064;2023-06-22T07:46:19;26.00;98.70
3275;DHT22;1649;53.672;10.064;2023-06-22T07:48:44;26.10;97.50
3275;DHT22;1649;53.672;10.064;2023-06-22T07:51:10;26.00;97.10
3275;DHT22;1649;53.672;10.064;2023-06-22T07:53:40;25.60;97.90
3275;DHT22;1649;53.672;10.064;2023-06-22T07:56:05;25.00;98.40
3275;DHT22;1649;53.672;10.064;2023-06-22T07:58:32;25.20;99.60
3275;DHT22;1649;53.672;10.064;2023-06-22T08:00:58;25.40;98.40
3275;DHT22;1649;53.672;10.064;2023-06-22T08:03:24;25.70;97.50
3275;DHT22;1649;53.672;10.064;2023-06-22T08:05:49;25.40;97.70
3275;DHT22;1649;53.672;10.064;2023-06-22T08:08:15;25.60;99.00
3275;DHT22;1649;53.672;10.064;2023-06-22T08:10:42;26.00;98.60
3275;DHT22;1649;53.672;10.064;2023-06-22T08:13:07;26.00;96.00
3275;DHT22;1649;53.672;10.064;2023-06-22T08:15:33;26.30;98.70
3275;DHT22;1649;53.672;10.064;2023-06-22T08:17:58;26.40;96.50
3275;DHT22;1649;53.672;10.064;2023-06-22T08:20:25;26.50;97.00
3275;DHT22;1649;53.672;10.064;2023-06-22T08:22:54;26.40;95.70
3275;DHT22;1649;53.672;10.064;2023-06-22T08:25:19;26.20;95.50
3275;DHT22;1649;53.672;10.064;2023-06-22T08:27:46;26.60;97.00
3275;DHT22;1649;53.672;10.064;2023-06-22T08:30:16;27.50;95.30
3275;DHT22;1649;53.672;10.064;2023-06-22T08:32:42;28.20;93.50
3275;DHT22;1649;53.672;10.064;2023-06-22T08:35:08;28.10;93.10
3275;DHT22;1649;53.672;10.064;2023-06-22T08:37:34;28.60;95.10
3275;DHT22;1649;53.672;10.064;2023-06-22T08:40:01;29.30;93.60
3275;DHT22;1649;53.672;10.064;2023-06-22T08:42:29;29.60;92.40
3275;DHT22;1649;53.672;10.064;2023-06-22T08:44:55;29.60;90.30
3275;DHT22;1649;53.672;10.064;2023-06-22T08:47:21;29.20;90.60
3275;DHT22;1649;53.672;10.064;2023-06-22T08:49:46;29.20;92.70
3275;DHT22;1649;53.672;10.064;2023-06-22T08:52:12;29.40;90.70
3275;DHT22;1649;53.672;10.064;2023-06-22T08:54:38;29.90;88.40
3275;DHT22;1649;53.672;10.064;2023-06-22T08:57:03;30.20;85.30
3275;DHT22;1649;53.672;10.064;2023-06-22T08:59:29;30.00;88.00
3275;DHT22;1649;53.672;10.064;2023-06-22T09:01:55;30.00;90.50
3275;DHT22;1649;53.672;10.064;2023-06-22T09:04:20;30.30;87.80
3275;DHT22;1649;53.672;10.064;2023-06-22T09:06:49;30.80;88.60
3275;DHT22;1649;53.672;10.064;2023-06-22T09:09:16;30.80;82.80
3275;DHT22;1649;53.672;10.064;2023-06-22T09:11:41;30.60;79.20
3275;DHT22;1649;53.672;10.064;2023-06-22T09:14:07;30.60;79.90
3275;DHT22;1649;53.672;10.064;2023-06-22T09:16:34;30.60;80.10
3275;DHT22;1649;53.672;10.064;2023-06-22T09:18:59;30.70;77.80
3275;DHT22;1649;53.672;10.064;2023-06-22T09:21:25;30.80;79.40
3275;DHT22;1649;53.672;10.064;2023-06-22T09:23:50;31.40;81.10
3275;DHT22;1649;53.672;10.064;2023-06-22T09:26:20;31.70;81.70
3275;DHT22;1649;53.672;10.064;2023-06-22T09:28:46;32.10;78.60
3275;DHT22;1649;53.672;10.064;2023-06-22T09:31:12;31.90;76.70
3275;DHT22;1649;53.672;10.064;2023-06-22T09:33:39;31.80;76.90
3275;DHT22;1649;53.672;10.064;2023-06-22T09:36:05;31.60;77.40
3275;DHT22;1649;53.672;10.064;2023-06-22T09:38:37;31.80;77.20
3275;DHT22;1649;53.672;10.064;2023-06-22T09:41:03;31.80;79.40
3275;DHT22;1649;53.672;10.064;2023-06-22T09:43:31;32.00;79.70
3275;DHT22;1649;53.672;10.064;2023-06-22T09:45:57;32.10;78.00
3275;DHT22;1649;53.672;10.064;2023-06-22T09:48:22;32.20;75.00
3275;DHT22;1649;53.672;10.064;2023-06-22T09:50:48;32.20;77.40
3275;DHT22;1649;53.672;10.064;2023-06-22T09:53:13;32.20;73.90
3275;DHT22;1649;53.672;10.064;2023-06-22T09:55:39;32.20;80.80
3275;DHT22;1649;53.672;10.064;2023-06-22T09:58:04;31.70;77.60
3275;DHT22;1649;53.672;10.064;2023-06-22T10:00:30;31.90;79.10
3275;DHT22;1649;53.672;10.064;2023-06-22T10:02:55;32.40;78.10
3275;DHT22;1649;53.672;10.064;2023-06-22T10:05:22;32.30;76.40
3275;DHT22;1649;53.672;10.064;2023-06-22T10:07:47;32.10;77.20
3275;DHT22;1649;53.672;10.064;2023-06-22T10:10:13;32.50;78.80
3275;DHT22;1649;53.672;10.064;2023-06-22T10:12:47;32.00;78.90
3275;DHT22;1649;53.672;10.064;2023-06-22T10:15:14;31.80;77.60
3275;DHT22;1649;53.672;10.064;2023-06-22T10:17:39;31.00;75.20
3275;DHT22;1649;53.672;10.064;2023-06-22T10:20:06;30.70;75.90
3275;DHT22;1649;53.672;10.064;2023-06-22T10:22:41;30.70;78.90
3275;DHT22;1649;53.672;10.064;2023-06-22T10:25:08;30.60;79.80
3275;DHT22;1649;53.672;10.064;2023-06-22T10:27:34;30.80;80.40
3275;DHT22;1649;53.672;10.064;2023-06-22T10:30:00;30.30;78.00
3275;DHT22;1649;53.672;10.064;2023-06-22T10:32:25;30.60;81.60
3275;DHT22;1649;53.672;10.064;2023-06-22T10:34:51;31.20;76.70
3275;DHT22;1649;53.672;10.064;2023-06-22T10:37:16;31.50;78.60
3275;DHT22;1649;53.672;10.064;2023-06-22T10:39:42;32.00;79.70
3275;DHT22;1649;53.672;10.064;2023-06-22T10:42:07;31.40;75.40
3275;DHT22;1649;53.672;10.064;2023-06-22T10:44:33;31.50;77.90
3275;DHT22;1649;53.672;10.064;2023-06-22T10:46:58;32.00;77.40
3275;DHT22;1649;53.672;10.064;2023-06-22T10:49:24;31.70;75.20
3275;DHT22;1649;53.672;10.064;2023-06-22T10:51:49;32.20;77.80
3275;DHT22;1649;53.672;10.064;2023-06-22T10:54:15;32.10;72.00
3275;DHT22;1649;53.672;10.064;2023-06-22T10:56:43;31.70;74.60
3275;DHT22;1649;53.672;10.064;2023-06-22T10:59:09;31.20;77.60
3275;DHT22;1649;53.672;10.064;2023-06-22T11:01:34;30.70;76.60
3275;DHT22;1649;53.672;10.064;2023-06-22T11:04:00;30.90;79.40
3275;DHT22;1649;53.672;10.064;2023-06-22T11:06:25;31.30;79.30
3275;DHT22;1649;53.672;10.064;2023-06-22T11:08:51;31.70;76.10
3275;DHT22;1649;53.672;10.064;2023-06-22T11:11:16;31.60;74.90
3275;DHT22;1649;53.672;10.064;2023-06-22T11:13:43;31.40;76.50
3275;DHT22;1649;53.672;10.064;2023-06-22T11:16:09;31.00;77.40
3275;DHT22;1649;53.672;10.064;2023-06-22T11:18:35;31.10;77.00
3275;DHT22;1649;53.672;10.064;2023-06-22T11:21:00;31.40;78.80
3275;DHT22;1649;53.672;10.064;2023-06-22T11:23:26;31.60;75.70
3275;DHT22;1649;53.672;10.064;2023-06-22T11:25:53;31.80;77.30
3275;DHT22;1649;53.672;10.064;2023-06-22T11:28:18;32.30;77.60
3275;DHT22;1649;53.672;10.064;2023-06-22T11:30:44;31.70;77.60
3275;DHT22;1649;53.672;10.064;2023-06-22T11:33:09;31.90;79.10
3275;DHT22;1649;53.672;10.064;2023-06-22T11:35:35;32.00;74.10
3275;DHT22;1649;53.672;10.064;2023-06-22T11:38:00;32.00;74.80
3275;DHT22;1649;53.672;10.064;2023-06-22T11:40:26;32.20;76.70
3275;DHT22;1649;53.672;10.064;2023-06-22T11:42:51;32.40;76.00
3275;DHT22;1649;53.672;10.064;2023-06-22T11:45:17;32.20;73.80
3275;DHT22;1649;53.672;10.064;2023-06-22T11:47:44;32.30;74.80
3275;DHT22;1649;53.672;10.064;2023-06-22T11:50:09;31.90;72.30
3275;DHT22;1649;53.672;10.064;2023-06-22T11:52:35;31.20;74.20
3275;DHT22;1649;53.672;10.064;2023-06-22T11:55:01;30.70;76.10
3275;DHT22;1649;53.672;10.064;2023-06-22T11:57:29;30.60;79.40
3275;DHT22;1649;53.672;10.064;2023-06-22T11:59:54;30.90;80.00
3275;DHT22;1649;53.672;10.064;2023-06-22T12:02:20;31.10;78.40
3275;DHT22;1649;53.672;10.064;2023-06-22T12:04:45;31.20;76.80
3275;DHT22;1649;53.672;10.064;2023-06-22T12:07:11;31.50;77.80
3275;DHT22;1649;53.672;10.064;2023-06-22T12:09:37;31.60;77.70
3275;DHT22;1649;53.672;10.064;2023-06-22T12:12:03;31.40;77.20
3275;DHT22;1649;53.672;10.064;2023-06-22T12:14:28;31.10;77.70
3275;DHT22;1649;53.672;10.064;2023-06-22T12:16:54;31.10;77.50
3275;DHT22;1649;53.672;10.064;2023-06-22T12:19:19;31.10;77.60
3275;DHT22;1649;53.672;10.064;2023-06-22T12:21:45;30.90;76.50
3275;DHT22;1649;53.672;10.064;2023-06-22T12:24:11;31.10;77.00
3275;DHT22;1649;53.672;10.064;2023-06-22T12:26:36;31.40;77.20
3275;DHT22;1649;53.672;10.064;2023-06-22T12:29:02;31.70;77.80
3275;DHT22;1649;53.672;10.064;2023-06-22T12:31:27;31.60;76.00
3275;DHT22;1649;53.672;10.064;2023-06-22T12:33:53;31.20;76.20
3275;DHT22;1649;53.672;10.064;2023-06-22T12:36:18;31.20;76.60
3275;DHT22;1649;53.672;10.064;2023-06-22T12:38:44;30.60;77.30
3275;DHT22;1649;53.672;10.064;2023-06-22T12:41:09;30.50;79.40
3275;DHT22;1649;53.672;10.064;2023-06-22T12:43:35;30.50;78.40
3275;DHT22;1649;53.672;10.064;2023-06-22T12:46:00;30.40;79.60
3275;DHT22;1649;53.672;10.064;2023-06-22T12:48:27;30.40;79.50
3275;DHT22;1649;53.672;10.064;2023-06-22T12:50:53;30.70;79.50
3275;DHT22;1649;53.672;10.064;2023-06-22T12:53:18;30.90;79.80
3275;DHT22;1649;53.672;10.064;2023-06-22T12:55:44;30.90;78.90
3275;DHT22;1649;53.672;10.064;2023-06-22T12:58:09;30.70;78.40
3275;DHT22;1649;53.672;10.064;2023-06-22T13:00:35;30.40;78.70
3275;DHT22;1649;53.672;10.064;2023-06-22T13:03:00;30.30;79.30
3275;DHT22;1649;53.672;10.064;2023-06-22T13:05:26;30.20;79.20
3275;DHT22;1649;53.672;10.064;2023-06-22T13:07:52;30.30;80.90
3275;DHT22;1649;53.672;10.064;2023-06-22T13:10:17;30.70;81.30
3275;DHT22;1649;53.672;10.064;2023-06-22T13:12:43;30.70;77.20
3275;DHT22;1649;53.672;10.064;2023-06-22T13:15:08;31.10;77.50
3275;DHT22;1649;53.672;10.064;2023-06-22T13:17:34;31.10;77.30
3275;DHT22;1649;53.672;10.064;2023-06-22T13:19:59;30.70;77.40
3275;DHT22;1649;53.672;10.064;2023-06-22T13:22:32;31.10;78.40
3275;DHT22;1649;53.672;10.064;2023-06-22T13:24:59;31.20;78.20
3275;DHT22;1649;53.672;10.064;2023-06-22T13:27:25;31.50;78.60
3275;DHT22;1649;53.672;10.064;2023-06-22T13:29:50;31.30;77.60
3275;DHT22;1649;53.672;10.064;2023-06-22T13:32:16;31.20;77.30
3275;DHT22;1649;53.672;10.064;2023-06-22T13:34:43;31.40;78.50
3275;DHT22;1649;53.672;10.064;2023-06-22T13:37:08;31.50;75.70
3275;DHT22;1649;53.672;10.064;2023-06-22T13:39:34;31.00;76.90
3275;DHT22;1649;53.672;10.064;2023-06-22T13:41:59;31.00;75.40
3275;DHT22;1649;53.672;10.064;2023-06-22T13:44:25;30.50;75.80
3275;DHT22;1649;53.672;10.064;2023-06-22T13:46:57;30.30;78.40
3275;DHT22;1649;53.672;10.064;2023-06-22T13:49:22;29.80;78.80
3275;DHT22;1649;53.672;10.064;2023-06-22T13:51:48;29.70;79.60
3275;DHT22;1649;53.672;10.064;2023-06-22T13:54:14;29.50;81.30
3275;DHT22;1649;53.672;10.064;2023-06-22T13:56:40;29.30;81.40
3275;DHT22;1649;53.672;10.064;2023-06-22T13:59:05;29.20;81.20
3275;DHT22;1649;53.672;10.064;2023-06-22T14:01:34;29.20;82.70
3275;DHT22;1649;53.672;10.064;2023-06-22T14:04:00;29.10;82.30
3275;DHT22;1649;53.672;10.064;2023-06-22T14:06:27;29.10;83.40
3275;DHT22;1649;53.672;10.064;2023-06-22T14:08:53;29.00;82.00
3275;DHT22;1649;53.672;10.064;2023-06-22T14:11:18;29.20;83.60
3275;DHT22;1649;53.672;10.064;2023-06-22T14:13:44;29.40;82.90
3275;DHT22;1649;53.672;10.064;2023-06-22T14:16:10;29.40;81.80
3275;DHT22;1649;53.672;10.064;2023-06-22T14:18:35;29.60;81.70
3275;DHT22;1649;53.672;10.064;2023-06-22T14:21:01;29.50;80.60
3275;DHT22;1649;53.672;10.064;2023-06-22T14:23:27;29.30;82.60
3275;DHT22;1649;53.672;10.064;2023-06-22T14:25:52;29.10;82.80
3275;DHT22;1649;53.672;10.064;2023-06-22T14:28:18;29.10;83.00
3275;DHT22;1649;53.672;10.064;2023-06-22T14:30:44;29.10;83.10
3275;DHT22;1649;53.672;10.064;2023-06-22T14:33:09;29.20;83.10
3275;DHT22;1649;53.672;10.064;2023-06-22T14:35:35;29.30;83.90
3275;DHT22;1649;53.672;10.064;2023-06-22T14:38:00;29.20;81.90
3275;DHT22;1649;53.672;10.064;2023-06-22T14:40:26;29.10;84.70
3275;DHT22;1649;53.672;10.064;2023-06-22T14:42:51;29.00;84.30
3275;DHT22;1649;53.672;10.064;2023-06-22T14:45:17;29.00;84.10
3275;DHT22;1649;53.672;10.064;2023-06-22T14:47:42;29.00;81.70
3275;DHT22;1649;53.672;10.064;2023-06-22T14:50:08;29.00;82.00
3275;DHT22;1649;53.672;10.064;2023-06-22T14:52:34;28.90;82.80
3275;DHT22;1649;53.672;10.064;2023-06-22T14:54:59;28.60;82.80
3275;DHT22;1649;53.672;10.064;2023-06-22T14:57:25;28.60;84.00
3275;DHT22;1649;53.672;10.064;2023-06-22T14:59:50;28.50;83.80
3275;DHT22;1649;53.672;10.064;2023-06-22T15:02:16;28.40;84.20
3275;DHT22;1649;53.672;10.064;2023-06-22T15:04:42;28.10;85.10
3275;DHT22;1649;53.672;10.064;2023-06-22T15:07:07;28.00;85.60
3275;DHT22;1649;53.672;10.064;2023-06-22T15:09:33;27.90;87.40
3275;DHT22;1649;53.672;10.064;2023-06-22T15:11:59;27.90;87.40
3275;DHT22;1649;53.672;10.064;2023-06-22T15:14:29;27.80;86.40
3275;DHT22;1649;53.672;10.064;2023-06-22T15:16:55;27.70;87.90
3275;DHT22;1649;53.672;10.064;2023-06-22T15:19:20;27.60;90.10
3275;DHT22;1649;53.672;10.064;2023-06-22T15:21:46;27.40;90.10
3275;DHT22;1649;53.672;10.064;2023-06-22T15:24:11;27.30;91.60
3275;DHT22;1649;53.672;10.064;2023-06-22T15:26:37;27.30;92.70
3275;DHT22;1649;53.672;10.064;2023-06-22T15:29:02;27.30;93.50
3275;DHT22;1649;53.672;10.064;2023-06-22T15:31:29;27.30;92.70
3275;DHT22;1649;53.672;10.064;2023-06-22T15:33:54;27.20;92.10
3275;DHT22;1649;53.672;10.064;2023-06-22T15:36:20;27.10;91.50
3275;DHT22;1649;53.672;10.064;2023-06-22T15:38:45;27.10;92.90
3275;DHT22;1649;53.672;10.064;2023-06-22T15:41:12;27.00;92.30